Flight Track Log - Related Links

Times and Time Zones

All times are in EDT time to prevent confusion due to time zone crossing. See the AAL963 flight status page for this flight to view local times or setup timezone preferences in your user account.

Time Position Orientation Groundspeed Altitude Reporting Facility
EDT Latitude Longitude Course Direction KTS MPH feet Rate Location/Type
Sun 09:19:03 PM 32.8160 -97.0690 194° South 226 260 2,600  Level FlightAware ADS-B
Sun 09:19:27 PM 32.7920 -97.0750 192° South 255 293 2,900 1,404 Climbing FlightAware ADS-B
Sun 09:19:50 PM 32.7610 -97.0770 183° South 258 297 3,700 2,000 Climbing FlightAware ADS-B
Sun 09:20:18 PM 32.7310 -97.0750 177° South 264 304 4,600 2,069 Climbing FlightAware ADS-B
Sun 09:20:48 PM 32.6950 -97.0670 169° South 266 306 5,700 2,250 Climbing FlightAware ADS-B
Sun 09:21:06 PM 32.6730 -97.0540 154° Southeast 271 312 6,400 2,217 Climbing FlightAware ADS-B
Sun 09:21:34 PM 32.6430 -97.0340 151° Southeast 273 314 7,400 1,950 Climbing FlightAware ADS-B
Sun 09:21:46 PM 32.6340 -97.0290 155° Southeast 275 316 7,700 2,308 Climbing FlightAware ADS-B
Sun 09:22:13 PM 32.5960 -97.0050 152° Southeast 279 321 8,900 2,400 Climbing FlightAware ADS-B
Sun 09:22:41 PM 32.5620 -96.9850 154° Southeast 283 326 9,900 1,417 Climbing FlightAware ADS-B
Sun 09:23:25 PM 32.5090 -96.9520 152° Southeast 319 367 10,600 847 Climbing FlightAware ADS-B
Sun 09:24:06 PM 32.4500 -96.9160 153° Southeast 359 413 11,100 977 Climbing FlightAware ADS-B
Sun 09:24:51 PM 32.3810 -96.8740 153° Southeast 386 444 12,000 1,714 Climbing FlightAware ADS-B
Sun 09:25:30 PM 32.3180 -96.8360 153° Southeast 390 449 13,500 1,976 Climbing FlightAware ADS-B
Sun 09:26:13 PM 32.2470 -96.8010 157° South 400 460 14,700 1,636 Climbing FlightAware ADS-B
Sun 09:26:58 PM 32.1649 -96.7696 162° South 412 474 15,900 1,520 Climbing FlightAware ADS-B
Sun 09:27:28 PM 32.1088 -96.7485 162° South 421 484 16,600 1,548 Climbing FlightAware ADS-B
Sun 09:28:00 PM 32.0484 -96.7256 162° South 428 493 17,500 1,600 Climbing FlightAware ADS-B
Sun 09:28:58 PM 31.9387 -96.6839 162° South 431 496 19,000 1,600 Climbing FlightAware ADS-B
Sun 09:29:30 PM 31.8748 -96.6597 162° South 442 509 19,900 1,714 Climbing FlightAware ADS-B
Sun 09:30:01 PM 31.8150 -96.6355 161° South 442 509 20,800 1,619 Climbing FlightAware ADS-B
Sun 09:30:33 PM 31.7523 -96.6093 160° South 449 517 21,600 1,455 Climbing FlightAware ADS-B
Sun 09:31:07 PM 31.6861 -96.5820 161° South 454 522 22,400 1,406 Climbing FlightAware ADS-B
Sun 09:31:37 PM 31.6256 -96.5573 161° South 459 528 23,100 1,258 Climbing FlightAware ADS-B
Sun 09:32:09 PM 31.5614 -96.5313 161° South 464 534 23,700 1,238 Climbing FlightAware ADS-B
Sun 09:32:40 PM 31.4978 -96.5055 161° South 470 541 24,400 1,200 Climbing FlightAware ADS-B
Sun 09:34:54 PM 31.2163 -96.4009 162° South 483 556 27,000 1,128 Climbing FlightAware ADS-B
Sun 09:35:09 PM 31.1852 -96.3836 152° Southeast 481 554 27,200 938 Climbing FlightAware ADS-B
Sun 09:35:26 PM 31.1553 -96.3577 143° Southeast 478 550 27,500 1,029 Climbing FlightAware ADS-B
Sun 09:35:44 PM 31.1296 -96.3246 129° Southeast 477 549 27,800 923 Climbing FlightAware ADS-B
Sun 09:36:44 PM 31.0523 -96.1989 125° Southeast 481 554 28,700 843 Climbing FlightAware ADS-B
Sun 09:37:45 PM 30.9728 -96.0692 126° Southeast 487 560 29,500 689 Climbing FlightAware ADS-B
Sun 09:38:46 PM 30.8914 -95.9376 126° Southeast 499 574 30,100 677 Climbing FlightAware ADS-B
Sun 09:39:49 PM 30.8059 -95.8000 126° Southeast 503 579 30,900 821 Climbing FlightAware ADS-B
Sun 09:40:21 PM 30.7592 -95.7324 130° Southeast 506 582 31,400 800 Climbing FlightAware ADS-B
Sun 09:40:49 PM 30.7134 -95.6759 133° Southeast 507 583 31,700 611 Climbing FlightAware ADS-B
Sun 09:42:58 PM 30.5006 -95.4409 137° Southeast 487 560 33,000 311 Climbing FlightAware ADS-B
Sun 09:45:00 PM 30.3010 -95.2224 137° Southeast 487 560 33,000  Level FlightAware ADS-B
Sun 09:45:31 PM 30.2497 -95.1664 137° Southeast 487 560 33,000  Level FlightAware ADS-B
Sun 09:46:02 PM 30.1998 -95.1119 137° Southeast 488 562 33,000  Level FlightAware ADS-B
Sun 09:46:32 PM 30.1504 -95.0582 137° Southeast 490 564 33,000  Level FlightAware ADS-B
Sun 09:47:02 PM 30.1006 -95.0041 137° Southeast 490 564 33,000  Level FlightAware ADS-B
Sun 09:48:03 PM 30.0005 -94.8954 137° Southeast 491 565 33,000  Level FlightAware ADS-B
Sun 09:48:33 PM 29.9508 -94.8417 137° Southeast 491 565 33,000  Level FlightAware ADS-B
Sun 09:50:04 PM 29.7989 -94.6778 137° Southeast 495 570 33,000  Level FlightAware ADS-B
Sun 09:52:05 PM 29.5954 -94.4593 137° Southeast 497 572 33,000  Level FlightAware ADS-B
Sun 09:52:36 PM 29.5442 -94.4046 137° Southeast 497 572 33,000  Level FlightAware ADS-B
Sun 09:53:07 PM 29.4918 -94.3486 137° Southeast 499 574 33,000  Level FlightAware ADS-B
Sun 09:54:08 PM 29.3882 -94.2385 137° Southeast 498 573 33,000  Level FlightAware ADS-B
Sun 09:54:39 PM 29.3366 -94.1832 137° Southeast 498 573 33,000  Level FlightAware ADS-B
Sun 09:55:09 PM 29.2855 -94.1288 137° Southeast 498 573 33,000  Level FlightAware ADS-B
Sun 09:55:41 PM 29.2323 -94.0722 137° Southeast 498 573 33,000  Level FlightAware ADS-B
Sun 09:56:11 PM 29.1813 -94.0182 137° Southeast 500 575 33,000  Level FlightAware ADS-B
Sun 09:56:48 PM 29.1186 -93.9518 137° Southeast 501 577 33,000  Level FlightAware ADS-B
Sun 09:57:37 PM 29.0556 -93.8806 137° Southeast 499 574 33,000 -55 Level Houston Center
Sun 09:58:38 PM 28.9511 -93.7800 140° Southeast 493 567 32,900  Descending Houston Center
Sun 09:59:39 PM 28.8481 -93.6692 137° Southeast 500 575 33,000 49 Climbing Houston Center
Sun 10:00:40 PM 28.7458 -93.5589 137° Southeast 506 582 33,000 -49 Level Houston Center
Sun 10:01:41 PM 28.6239 -93.4322 138° Southeast 500 575 32,900  Descending Houston Center
Sun 10:02:42 PM 28.5203 -93.3233 137° Southeast 500 575 33,000  Climbing Houston Center
Sun 10:03:43 PM 28.4197 -93.2183 137° Southeast 500 575 32,900  Descending Houston Center
Sun 10:04:44 PM 28.3172 -93.1136 138° Southeast 497 572 33,000  Climbing Houston Center
Sun 10:05:45 PM 28.2147 -93.0039 137° Southeast 504 580 32,900 -49 Descending Houston Center
Sun 10:06:46 PM 28.1114 -92.9006 139° Southeast 498 573 32,900 49 Level Houston Center
Sun 10:07:47 PM 28.0089 -92.7944 138° Southeast 500 575 33,000 -285 Climbing Houston Center
Sun 10:12:44 PM 30.8240 -95.8290 138° Southeast 503 579 31,200 -309 Descending FlightAware ADS-B
Sun 10:13:36 PM 30.7610 -95.7350 128° Southeast 503 579 31,200  Level FlightAware ADS-B
Sun 10:14:12 PM 30.7170 -95.6700 128° Southeast 503 579 31,200  Level FlightAware ADS-B
Sun 10:15:00 PM 30.6590 -95.5830 128° Southeast 503 579 31,200  Level FlightAware ADS-B
Sun 10:15:38 PM 30.6120 -95.5140 128° Southeast 503 579 31,200  Level FlightAware ADS-B
Sun 10:16:15 PM 30.5670 -95.4470 128° Southeast 503 579 31,200  Level FlightAware ADS-B
Sun 10:17:03 PM 30.5090 -95.3600 128° Southeast 503 579 31,200  Level FlightAware ADS-B
Sun 10:17:37 PM 30.4670 -95.2990 129° Southeast 503 579 31,200  Level FlightAware ADS-B
Sun 10:18:25 PM 30.4090 -95.2120 128° Southeast 503 579 31,200  Level FlightAware ADS-B
Sun 10:19:01 PM 30.3650 -95.1470 128° Southeast 503 579 31,200  Level FlightAware ADS-B
Sun 10:19:49 PM 30.3070 -95.0600 128° Southeast 503 579 31,200  Level FlightAware ADS-B
Sun 10:20:25 PM 30.2630 -94.9950 128° Southeast 503 579 31,200  Level FlightAware ADS-B
Sun 10:21:13 PM 30.2040 -94.9080 128° Southeast 503 579 31,200  Level FlightAware ADS-B
Sun 10:21:49 PM 30.1600 -94.8440 128° Southeast 503 579 31,200  Level FlightAware ADS-B
Sun 10:22:37 PM 30.1020 -94.7570 128° Southeast 503 579 31,200 140 Level FlightAware ADS-B
Sun 10:25:00 PM 29.8832 -94.4915 134° Southeast  Level Estimated
Sun 10:26:00 PM 29.7912 -94.3804 134° Southeast  Level Estimated
Sun 10:27:00 PM 29.6992 -94.2696 134° Southeast  Level Estimated
Sun 10:28:00 PM 29.6070 -94.1589 134° Southeast  Level Estimated
Sun 10:29:00 PM 29.5147 -94.0485 134° Southeast  Level Estimated
Sun 10:30:00 PM 29.4224 -93.9382 134° Southeast  Level Estimated
Sun 10:31:00 PM 29.3300 -93.8282 134° Southeast  Level Estimated
Sun 10:32:00 PM 29.2374 -93.7183 134° Southeast  Level Estimated
Sun 10:33:00 PM 29.1448 -93.6087 134° Southeast  Level Estimated
Sun 10:34:00 PM 29.0521 -93.4992 134° Southeast  Level Estimated
Sun 10:35:00 PM 28.9594 -93.3900 134° Southeast  Level Estimated
Sun 10:36:00 PM 28.8665 -93.2809 134° Southeast  Level Estimated
Sun 10:37:00 PM 28.7735 -93.1720 134° Southeast  Level Estimated
Sun 10:38:00 PM 28.6805 -93.0634 134° Southeast  Level Estimated
Sun 10:39:00 PM 28.5873 -92.9549 134° Southeast  Level Estimated
Sun 10:40:00 PM 28.4956 -92.8484 134° Southeast  Level Estimated
Sun 10:41:00 PM 28.4039 -92.7420 134° Southeast  Level Estimated
Sun 10:42:00 PM 28.3120 -92.6359 134° Southeast  Level Estimated
Sun 10:43:00 PM 28.2201 -92.5299 135° Southeast  Level Estimated
Sun 10:44:00 PM 28.1280 -92.4241 135° Southeast  Level Estimated
Sun 10:45:00 PM 28.0359 -92.3186 135° Southeast  Level Estimated
Sun 10:46:00 PM 27.9438 -92.2131 135° Southeast  Level Estimated
Sun 10:47:00 PM 27.8515 -92.1079 135° Southeast  Level Estimated
Sun 10:48:00 PM 27.7591 -92.0028 135° Southeast  Level Estimated
Sun 10:49:00 PM 27.6667 -91.8979 135° Southeast  Level Estimated
Sun 10:49:00 PM 23.3990 -89.0230 135° Southeast 504 580 35,000  Level FlightAware ADS-B
Sun 10:49:35 PM 23.3230 -88.9660 145° Southeast 504 580 35,000  Level FlightAware ADS-B
Sun 10:50:26 PM 23.2210 -88.8900 146° Southeast 504 580 35,000  Level FlightAware ADS-B
Sun 10:51:07 PM 23.1490 -88.8370 146° Southeast 503 579 35,000  Level FlightAware ADS-B
Sun 10:51:37 PM 23.0900 -88.7930 146° Southeast 504 580 35,000  Level FlightAware ADS-B
Sun 10:52:18 PM 23.0130 -88.7360 146° Southeast 504 580 35,000  Level FlightAware ADS-B
Sun 10:53:05 PM 22.9220 -88.6680 145° Southeast 504 580 35,000  Level FlightAware ADS-B
Sun 10:53:36 PM 22.8620 -88.6220 145° Southeast 501 577 35,000  Level FlightAware ADS-B
Sun 10:54:19 PM 22.7920 -88.5550 139° Southeast 499 574 35,000  Level FlightAware ADS-B
Sun 10:55:07 PM 22.7020 -88.4690 139° Southeast 499 574 35,000  Level FlightAware ADS-B
Sun 10:55:45 PM 22.6340 -88.4040 139° Southeast 496 571 35,000  Level FlightAware ADS-B
Sun 10:56:27 PM 22.5670 -88.3360 137° Southeast 494 568 35,000  Level FlightAware ADS-B
Sun 10:57:12 PM 22.4930 -88.2640 138° Southeast 494 568 35,000  Level FlightAware ADS-B
Sun 10:57:55 PM 22.4210 -88.1930 138° Southeast 496 571 35,000  Level FlightAware ADS-B
Sun 10:58:25 PM 22.3660 -88.1400 138° Southeast 499 574 35,000  Level FlightAware ADS-B
Sun 10:59:08 PM 22.2930 -88.0680 138° Southeast 499 574 35,000  Level FlightAware ADS-B
Sun 10:59:48 PM 22.2250 -88.0010 138° Southeast 499 574 35,000  Level FlightAware ADS-B
Sun 11:00:26 PM 22.1550 -87.9340 138° Southeast 499 574 35,000  Level FlightAware ADS-B
Sun 11:01:07 PM 22.0930 -87.8730 138° Southeast 498 573 35,000  Level FlightAware ADS-B
Sun 11:01:49 PM 22.0210 -87.8030 138° Southeast 499 574 35,000  Level FlightAware ADS-B
Sun 11:02:26 PM 21.9500 -87.7340 138° Southeast 499 574 35,000  Level FlightAware ADS-B
Sun 11:03:11 PM 21.8710 -87.6570 138° Southeast 497 572 35,000  Level FlightAware ADS-B
Sun 11:03:56 PM 21.7960 -87.5840 138° Southeast 496 571 35,000  Level FlightAware ADS-B
Sun 11:04:36 PM 21.7260 -87.5160 138° Southeast 495 570 35,000  Level FlightAware ADS-B
Sun 11:05:18 PM 21.6560 -87.4480 138° Southeast 494 568 35,000  Level FlightAware ADS-B
Sun 11:06:05 PM 21.5700 -87.3660 138° Southeast 493 567 35,000  Level FlightAware ADS-B
Sun 11:06:44 PM 21.5010 -87.2980 137° Southeast 492 566 35,000  Level FlightAware ADS-B
Sun 11:07:26 PM 21.4300 -87.2300 138° Southeast 492 566 35,000  Level FlightAware ADS-B
Sun 11:08:10 PM 21.3550 -87.1580 138° Southeast 492 566 35,000  Level FlightAware ADS-B
Sun 11:08:50 PM 21.2880 -87.0930 138° Southeast 492 566 35,000  Level FlightAware ADS-B
Sun 11:09:32 PM 21.2160 -87.0240 138° Southeast 491 565 35,000  Level FlightAware ADS-B
Sun 11:10:12 PM 21.1480 -86.9590 138° Southeast 490 564 35,000  Level FlightAware ADS-B
Sun 11:10:58 PM 21.0710 -86.8850 138° Southeast 490 564 35,000  Level FlightAware ADS-B
Sun 11:11:40 PM 20.9980 -86.8160 139° Southeast 490 564 35,000  Level FlightAware ADS-B
Sun 11:12:18 PM 20.9340 -86.7550 138° Southeast 492 566 35,000  Level FlightAware ADS-B
Sun 11:12:54 PM 20.8730 -86.6970 138° Southeast 492 566 35,000  Level FlightAware ADS-B
Sun 11:13:36 PM 20.8020 -86.6290 138° Southeast 495 570 35,000  Level FlightAware ADS-B
Sun 11:14:16 PM 20.7340 -86.5640 138° Southeast 495 570 35,000  Level FlightAware ADS-B
Sun 11:14:54 PM 20.6680 -86.5010 138° Southeast 495 570 35,000  Level FlightAware ADS-B
Sun 11:15:36 PM 20.5970 -86.4340 139° Southeast 496 571 35,000  Level FlightAware ADS-B
Sun 11:16:18 PM 20.5230 -86.3640 138° Southeast 497 572 35,000  Level FlightAware ADS-B
Sun 11:16:59 PM 20.4650 -86.3080 138° Southeast 497 572 35,000  Level FlightAware ADS-B
Sun 11:17:41 PM 20.3830 -86.2320 139° Southeast 496 571 35,000  Level FlightAware ADS-B
Sun 11:18:20 PM 20.3270 -86.1770 137° Southeast 496 571 35,000  Level FlightAware ADS-B
Sun 11:19:08 PM 20.2570 -86.1110 139° Southeast 496 571 35,000  Level FlightAware ADS-B
Sun 11:19:43 PM 20.1700 -86.0310 139° Southeast 499 574 35,000  Level FlightAware ADS-B
Sun 11:20:23 PM 20.1010 -85.9660 138° Southeast 498 573 35,000  Level FlightAware ADS-B
Sun 11:21:07 PM 20.0260 -85.8950 138° Southeast 497 572 35,000  Level FlightAware ADS-B
Sun 11:21:41 PM 19.9680 -85.8400 138° Southeast 496 571 35,000  Level FlightAware ADS-B
Sun 11:22:21 PM 19.8980 -85.7750 139° Southeast 495 570 35,000  Level FlightAware ADS-B
Sun 11:23:05 PM 19.8220 -85.7030 138° Southeast 496 571 35,000  Level FlightAware ADS-B
Sun 11:23:49 PM 19.7470 -85.6320 138° Southeast 496 571 35,000  Level FlightAware ADS-B
Sun 11:24:30 PM 19.6800 -85.5690 138° Southeast 495 570 35,000  Level FlightAware ADS-B
Sun 11:25:07 PM 19.6270 -85.5180 138° Southeast 495 570 35,000  Level FlightAware ADS-B
Sun 11:25:53 PM 19.5340 -85.4320 139° Southeast 497 572 35,000  Level FlightAware ADS-B
Sun 11:26:25 PM 19.4800 -85.3820 139° Southeast 495 570 35,000  Level FlightAware ADS-B
Sun 11:27:09 PM 19.4030 -85.3100 139° Southeast 497 572 35,000  Level FlightAware ADS-B
Sun 11:27:51 PM 19.3310 -85.2420 138° Southeast 498 573 35,000  Level FlightAware ADS-B
Sun 11:28:33 PM 19.2670 -85.1820 138° Southeast 498 573 35,000  Level FlightAware ADS-B
Sun 11:29:21 PM 19.1970 -85.1150 138° Southeast 498 573 35,000  Level FlightAware ADS-B
Sun 11:29:58 PM 19.1430 -85.0640 138° Southeast 498 573 35,000  Level FlightAware ADS-B
Sun 11:30:47 PM 19.0720 -84.9960 138° Southeast 498 573 35,000  Level FlightAware ADS-B
Sun 11:31:23 PM 19.0190 -84.9460 138° Southeast 498 573 35,000  Level FlightAware ADS-B
Sun 11:32:11 PM 18.9490 -84.8790 138° Southeast 498 573 35,000  Level FlightAware ADS-B
Sun 11:32:47 PM 18.8970 -84.8290 138° Southeast 498 573 35,000  Level FlightAware ADS-B
Sun 11:33:36 PM 18.8260 -84.7620 138° Southeast 498 573 35,000  Level FlightAware ADS-B
Sun 11:34:12 PM 18.7730 -84.7120 138° Southeast 498 573 35,000  Level FlightAware ADS-B
Sun 11:35:00 PM 18.7030 -84.6450 138° Southeast 498 573 35,000  Level FlightAware ADS-B
Sun 11:35:36 PM 18.6510 -84.5950 138° Southeast 498 573 35,000  Level FlightAware ADS-B
Sun 11:36:25 PM 18.5800 -84.5280 138° Southeast 498 573 35,000  Level FlightAware ADS-B
Sun 11:37:01 PM 18.5270 -84.4780 138° Southeast 498 573 35,000  Level FlightAware ADS-B
Sun 11:37:49 PM 18.4580 -84.4120 138° Southeast 498 573 35,000 29 Level FlightAware ADS-B
Sun 11:40:00 PM 18.2485 -84.2068 137° Southeast  Level Estimated
Sun 11:41:00 PM 18.1525 -84.1130 137° Southeast  Level Estimated
Sun 11:42:00 PM 18.0564 -84.0193 137° Southeast  Level Estimated
Sun 11:43:00 PM 17.9603 -83.9257 137° Southeast  Level Estimated
Sun 11:44:00 PM 17.8641 -83.8322 137° Southeast  Level Estimated
Sun 11:45:00 PM 17.7679 -83.7388 137° Southeast  Level Estimated
Sun 11:46:00 PM 17.6716 -83.6455 137° Southeast  Level Estimated
Sun 11:47:00 PM 17.5753 -83.5523 137° Southeast  Level Estimated
Sun 11:48:00 PM 17.4790 -83.4592 137° Southeast  Level Estimated
Sun 11:49:00 PM 17.3826 -83.3662 137° Southeast  Level Estimated
Sun 11:50:00 PM 17.2862 -83.2733 137° Southeast  Level Estimated
Sun 11:51:00 PM 17.1897 -83.1805 137° Southeast  Level Estimated
Sun 11:52:00 PM 17.0932 -83.0878 137° Southeast  Level Estimated
Sun 11:53:00 PM 16.9966 -82.9952 137° Southeast  Level Estimated
Sun 11:54:00 PM 16.9000 -82.9027 137° Southeast  Level Estimated
Sun 11:55:00 PM 16.8034 -82.8103 138° Southeast  Level Estimated
Sun 11:56:00 PM 16.7067 -82.7179 138° Southeast  Level Estimated
Sun 11:57:00 PM 16.6100 -82.6257 138° Southeast  Level Estimated
Sun 11:58:00 PM 16.5132 -82.5336 138° Southeast  Level Estimated
Sun 11:59:00 PM 16.4164 -82.4415 138° Southeast  Level Estimated
Mon 12:00:00 AM 16.3196 -82.3496 138° Southeast  Level Estimated
Mon 12:01:00 AM 16.2227 -82.2577 138° Southeast  Level Estimated
Mon 12:02:00 AM 16.1258 -82.1659 138° Southeast  Level Estimated
Mon 12:03:00 AM 16.0288 -82.0743 138° Southeast  Level Estimated
Mon 12:04:00 AM 15.9318 -81.9827 138° Southeast  Level Estimated
Mon 12:05:00 AM 15.8348 -81.8912 138° Southeast  Level Estimated
Mon 12:06:00 AM 15.7377 -81.7997 138° Southeast  Level Estimated
Mon 12:07:00 AM 15.6406 -81.7084 138° Southeast  Level Estimated
Mon 12:08:00 AM 15.5434 -81.6171 138° Southeast  Level Estimated
Mon 12:09:00 AM 15.4462 -81.5260 138° Southeast  Level Estimated
Mon 12:10:00 AM 15.3490 -81.4349 138° Southeast  Level Estimated
Mon 12:11:00 AM 15.2517 -81.3439 138° Southeast  Level Estimated
Mon 12:12:00 AM 15.1544 -81.2530 138° Southeast  Level Estimated
Mon 12:13:00 AM 15.0571 -81.1622 138° Southeast  Level Estimated
Mon 12:14:00 AM 14.9597 -81.0715 138° Southeast  Level Estimated
Mon 12:15:00 AM 14.8623 -80.9808 138° Southeast  Level Estimated
Mon 12:16:00 AM 14.7648 -80.8902 138° Southeast  Level Estimated
Mon 12:17:00 AM 14.6674 -80.7998 138° Southeast  Level Estimated
Mon 12:18:00 AM 14.5698 -80.7093 138° Southeast  Level Estimated
Mon 12:19:00 AM 14.4723 -80.6190 138° Southeast  Level Estimated
Mon 12:20:00 AM 14.3747 -80.5288 138° Southeast  Level Estimated
Mon 12:21:00 AM 14.2771 -80.4386 138° Southeast  Level Estimated
Mon 12:22:00 AM 14.1794 -80.3485 138° Southeast  Level Estimated
Mon 12:23:00 AM 14.0817 -80.2585 138° Southeast  Level Estimated
Mon 12:24:00 AM 13.9840 -80.1685 138° Southeast  Level Estimated
Mon 12:25:00 AM 13.8863 -80.0787 138° Southeast  Level Estimated
Mon 12:26:00 AM 13.7885 -79.9889 138° Southeast  Level Estimated
Mon 12:27:00 AM 13.6907 -79.8992 138° Southeast  Level Estimated
Mon 12:28:00 AM 13.5928 -79.8095 138° Southeast  Level Estimated
Mon 12:29:00 AM 13.4949 -79.7200 138° Southeast  Level Estimated
Mon 12:30:00 AM 13.3970 -79.6305 138° Southeast  Level Estimated
Mon 12:31:00 AM 13.2991 -79.5411 138° Southeast  Level Estimated
Mon 12:32:00 AM 13.2011 -79.4517 138° Southeast  Level Estimated
Mon 12:33:00 AM 13.1031 -79.3624 138° Southeast  Level Estimated
Mon 12:34:00 AM 13.0050 -79.2732 138° Southeast  Level Estimated
Mon 12:35:00 AM 12.9070 -79.1841 138° Southeast  Level Estimated
Mon 12:36:00 AM 12.8089 -79.0950 138° Southeast  Level Estimated
Mon 12:37:00 AM 12.7107 -79.0060 138° Southeast  Level Estimated
Mon 12:38:00 AM 12.6126 -78.9171 139° Southeast  Level Estimated
Mon 12:39:00 AM 12.5144 -78.8282 139° Southeast  Level Estimated
Mon 12:40:00 AM 12.4162 -78.7395 139° Southeast  Level Estimated
Mon 12:41:00 AM 12.3179 -78.6507 139° Southeast  Level Estimated
Mon 12:42:00 AM 12.2196 -78.5621 139° Southeast  Level Estimated
Mon 12:43:00 AM 12.1213 -78.4735 139° Southeast  Level Estimated
Mon 12:44:00 AM 12.0230 -78.3850 139° Southeast  Level Estimated
Mon 12:45:00 AM 11.9247 -78.2965 139° Southeast  Level Estimated
Mon 12:46:00 AM 11.8263 -78.2081 139° Southeast  Level Estimated
Mon 12:46:27 AM 11.5140 -77.8460 139° Southeast 465 535 37,000  Level FlightAware ADS-B
Mon 12:47:00 AM 11.7278 -78.1198 139° Southeast  Level Estimated
Mon 12:47:02 AM 11.4530 -77.7990 143° Southeast 469 540 37,000  Level FlightAware ADS-B
Mon 12:48:28 AM 11.3070 -77.6860 143° Southeast 467 537 37,000  Level FlightAware ADS-B
Mon 12:49:09 AM 11.2480 -77.6390 142° Southeast 467 537 37,000  Level FlightAware ADS-B
Mon 12:49:45 AM 11.1960 -77.5970 142° Southeast 467 537 37,000  Level FlightAware ADS-B
Mon 12:50:33 AM 11.1260 -77.5420 142° Southeast 467 537 37,000  Level FlightAware ADS-B
Mon 12:51:20 AM 11.0040 -77.4510 144° Southeast 468 539 37,000  Level FlightAware ADS-B
Mon 12:52:01 AM 10.9350 -77.3940 141° Southeast 460 529 37,000  Level FlightAware ADS-B
Mon 12:52:42 AM 10.8700 -77.3340 138° Southeast 461 531 37,000  Level FlightAware ADS-B
Mon 12:53:27 AM 10.7980 -77.2660 137° Southeast 465 535 37,000  Level FlightAware ADS-B
Mon 12:54:23 AM 10.7150 -77.1890 138° Southeast 464 534 37,000  Level FlightAware ADS-B
Mon 12:54:59 AM 10.6670 -77.1440 137° Southeast 464 534 37,000  Level FlightAware ADS-B
Mon 12:55:35 AM 10.6190 -77.0980 137° Southeast 464 534 37,000  Level FlightAware ADS-B
Mon 12:56:11 AM 10.5710 -77.0520 137° Southeast 464 534 37,000  Level FlightAware ADS-B
Mon 12:56:53 AM 10.4760 -76.9670 139° Southeast 37,000  Level FlightAware ADS-B
Mon 12:57:42 AM 10.3950 -76.8910 137° Southeast 463 533 37,000  Level FlightAware ADS-B
Mon 12:58:22 AM 10.3290 -76.8300 138° Southeast 462 532 37,000  Level FlightAware ADS-B
Mon 12:59:03 AM 10.2650 -76.7710 138° Southeast 463 533 37,000  Level FlightAware ADS-B
Mon 12:59:43 AM 10.2040 -76.7140 137° Southeast 464 534 37,000  Level FlightAware ADS-B
Mon 01:00:31 AM 10.1590 -76.6720 137° Southeast 465 535 37,000  Level FlightAware ADS-B
Mon 01:01:18 AM 10.0490 -76.5710 138° Southeast 465 535 37,000  Level FlightAware ADS-B
Mon 01:01:58 AM 9.9870 -76.5130 137° Southeast 462 532 37,000  Level FlightAware ADS-B
Mon 01:02:38 AM 9.9310 -76.4610 138° Southeast 460 529 37,000  Level FlightAware ADS-B
Mon 01:03:33 AM 9.8410 -76.3780 138° Southeast 460 529 37,000  Level FlightAware ADS-B
Mon 01:04:13 AM 9.7780 -76.3200 138° Southeast 461 531 37,000  Level FlightAware ADS-B
Mon 01:04:58 AM 9.7030 -76.2500 137° Southeast 464 534 37,000  Level FlightAware ADS-B
Mon 01:05:38 AM 9.6400 -76.1920 138° Southeast 464 534 37,000  Level FlightAware ADS-B
Mon 01:06:23 AM 9.5690 -76.1270 138° Southeast 465 535 37,000  Level FlightAware ADS-B
Mon 01:07:08 AM 9.4970 -76.0600 137° Southeast 466 536 37,000  Level FlightAware ADS-B
Mon 01:07:43 AM 9.4430 -76.0110 138° Southeast 466 536 37,000  Level FlightAware ADS-B
Mon 01:08:23 AM 9.3770 -75.9500 138° Southeast 466 536 37,000  Level FlightAware ADS-B
Mon 01:09:03 AM 9.3170 -75.8940 137° Southeast 466 536 37,000  Level FlightAware ADS-B
Mon 01:09:53 AM 9.2360 -75.8200 138° Southeast 470 541 37,000  Level FlightAware ADS-B
Mon 01:11:26 AM 9.0970 -75.6920 138° Southeast 471 542 37,000  Level FlightAware ADS-B
Mon 01:12:16 AM 9.0280 -75.6290 138° Southeast 471 542 37,000  Level FlightAware ADS-B
Mon 01:12:58 AM 8.9370 -75.5450 138° Southeast 471 542 37,000  Level FlightAware ADS-B
Mon 01:14:03 AM 8.8300 -75.4470 138° Southeast 471 542 37,000  Level FlightAware ADS-B
Mon 01:14:48 AM 8.7610 -75.3830 137° Southeast 472 543 37,000  Level FlightAware ADS-B
Mon 01:15:24 AM 8.7060 -75.3330 138° Southeast 472 543 37,000  Level FlightAware ADS-B
Mon 01:16:13 AM 8.6200 -75.2550 138° Southeast 473 544 37,000  Level FlightAware ADS-B
Mon 01:16:48 AM 8.5620 -75.2010 137° Southeast 474 545 37,000  Level FlightAware ADS-B
Mon 01:17:33 AM 8.4880 -75.1340 138° Southeast 473 544 37,000  Level FlightAware ADS-B
Mon 01:18:13 AM 8.4270 -75.0780 138° Southeast 473 544 37,000  Level FlightAware ADS-B
Mon 01:18:53 AM 8.3600 -75.0170 138° Southeast 475 547 37,000  Level FlightAware ADS-B
Mon 01:19:38 AM 8.2870 -74.9530 139° Southeast 478 550 37,000  Level FlightAware ADS-B
Mon 01:20:18 AM 8.2070 -74.9020 148° Southeast 482 555 37,000  Level FlightAware ADS-B
Mon 01:20:58 AM 8.1340 -74.8560 148° Southeast 483 556 37,000  Level FlightAware ADS-B
Mon 01:21:43 AM 8.0440 -74.8080 152° Southeast 481 554 37,000  Level FlightAware ADS-B
Mon 01:22:23 AM 7.9610 -74.7660 153° Southeast 481 554 37,000  Level FlightAware ADS-B
Mon 01:23:03 AM 7.8820 -74.7270 154° Southeast 481 554 37,000  Level FlightAware ADS-B
Mon 01:23:43 AM 7.8110 -74.6920 154° Southeast 481 554 37,000  Level FlightAware ADS-B
Mon 01:24:23 AM 7.7250 -74.6500 154° Southeast 479 551 37,000  Level FlightAware ADS-B
Mon 01:25:03 AM 7.6440 -74.6110 154° Southeast 478 550 37,000  Level FlightAware ADS-B
Mon 01:25:38 AM 7.5790 -74.5790 154° Southeast 478 550 37,000  Level FlightAware ADS-B
Mon 01:26:23 AM 7.4810 -74.5330 155° Southeast 474 545 37,000  Level FlightAware ADS-B
Mon 01:27:03 AM 7.4050 -74.4970 155° Southeast 471 542 37,000  Level FlightAware ADS-B
Mon 01:27:48 AM 7.3150 -74.4540 155° Southeast 469 540 37,000  Level FlightAware ADS-B
Mon 01:28:28 AM 7.2370 -74.4150 154° Southeast 469 540 37,000  Level FlightAware ADS-B
Mon 01:29:03 AM 7.1680 -74.3820 155° Southeast 471 542 37,000  Level FlightAware ADS-B
Mon 01:29:53 AM 7.0700 -74.3330 154° Southeast 472 543 37,000  Level FlightAware ADS-B
Mon 01:30:28 AM 7.0090 -74.3020 153° Southeast 473 544 37,000  Level FlightAware ADS-B
Mon 01:31:11 AM 6.9290 -74.2610 153° Southeast 473 544 37,000  Level FlightAware ADS-B
Mon 01:31:48 AM 6.8670 -74.2300 154° Southeast 473 544 37,000  Level FlightAware ADS-B
Mon 01:32:29 AM 6.7630 -74.1760 153° Southeast 475 547 37,000  Level FlightAware ADS-B
Mon 01:33:08 AM 6.6870 -74.1360 152° Southeast 477 549 37,000  Level FlightAware ADS-B
Mon 01:33:50 AM 6.6090 -74.0840 146° Southeast 480 552 37,000  Level FlightAware ADS-B
Mon 01:34:33 AM 6.5320 -74.0290 145° Southeast 481 554 37,000  Level FlightAware ADS-B
Mon 01:35:12 AM 6.4600 -73.9760 144° Southeast 483 556 37,000  Level FlightAware ADS-B
Mon 01:35:58 AM 6.3760 -73.9150 144° Southeast 485 558 37,000  Level FlightAware ADS-B
Mon 01:36:38 AM 6.3050 -73.8630 144° Southeast 486 559 37,000  Level FlightAware ADS-B
Mon 01:37:18 AM 6.2300 -73.8090 144° Southeast 488 562 37,000  Level FlightAware ADS-B
Mon 01:37:54 AM 6.1640 -73.7600 144° Southeast 489 563 37,000  Level FlightAware ADS-B
Mon 01:38:39 AM 6.0830 -73.7010 144° Southeast 490 564 37,000  Level FlightAware ADS-B
Mon 01:39:16 AM 6.0140 -73.6510 144° Southeast 490 564 37,000  Level FlightAware ADS-B
Mon 01:39:56 AM 5.9400 -73.5970 144° Southeast 490 564 37,000  Level FlightAware ADS-B
Mon 01:40:36 AM 5.8660 -73.5430 144° Southeast 492 566 37,000  Level FlightAware ADS-B
Mon 01:41:16 AM 5.7930 -73.4900 144° Southeast 493 567 37,000  Level FlightAware ADS-B
Mon 01:42:00 AM 5.7110 -73.4300 144° Southeast 491 565 37,000  Level FlightAware ADS-B
Mon 01:42:40 AM 5.6380 -73.3770 144° Southeast 488 562 37,000  Level FlightAware ADS-B
Mon 01:43:26 AM 5.5540 -73.3160 144° Southeast 488 562 37,000  Level FlightAware ADS-B
Mon 01:44:06 AM 5.4800 -73.2620 144° Southeast 487 560 37,000  Level FlightAware ADS-B
Mon 01:44:38 AM 5.4210 -73.2190 144° Southeast 486 559 37,000  Level FlightAware ADS-B
Mon 01:45:43 AM 5.3160 -73.1400 143° Southeast 484 557 37,000  Level FlightAware ADS-B
Mon 01:46:26 AM 5.2280 -73.0780 145° Southeast 480 552 37,000  Level FlightAware ADS-B
Mon 01:47:11 AM 5.1440 -73.0180 145° Southeast 478 550 37,000  Level FlightAware ADS-B
Mon 01:47:51 AM 5.0730 -72.9650 143° Southeast 478 550 37,000  Level FlightAware ADS-B
Mon 01:48:31 AM 5.0020 -72.9140 144° Southeast 478 550 37,000  Level FlightAware ADS-B
Mon 01:49:32 AM 4.9000 -72.8400 144° Southeast 478 550 37,000  Level FlightAware ADS-B
Mon 01:50:08 AM 4.8460 -72.8000 144° Southeast 478 550 37,000  Level FlightAware ADS-B
Mon 01:51:09 AM 4.7530 -72.7330 144° Southeast 478 550 37,000  Level FlightAware ADS-B
Mon 01:51:45 AM 4.6980 -72.6930 144° Southeast 478 550 37,000  Level FlightAware ADS-B
Mon 01:52:22 AM 4.6420 -72.6520 144° Southeast 478 550 37,000  Level FlightAware ADS-B
Mon 01:52:58 AM 4.5870 -72.6120 144° Southeast 478 550 37,000  Level FlightAware ADS-B
Mon 01:53:34 AM 4.5320 -72.5720 144° Southeast 478 550 37,000  Level FlightAware ADS-B
Mon 01:54:24 AM 4.4560 -72.5170 144° Southeast 478 550 37,000  Level FlightAware ADS-B
Mon 01:55:00 AM 4.4020 -72.4770 144° Southeast 478 550 37,000  Level FlightAware ADS-B
Mon 01:56:02 AM 4.3070 -72.4080 144° Southeast 478 550 37,000  Level FlightAware ADS-B
Mon 01:56:38 AM 4.2530 -72.3680 144° Southeast 478 550 37,000  Level FlightAware ADS-B
Mon 01:57:26 AM 4.1800 -72.3150 144° Southeast 478 550 37,000  Level FlightAware ADS-B
Mon 01:58:02 AM 4.1250 -72.2750 144° Southeast 478 550 37,000  Level FlightAware ADS-B
Mon 01:58:39 AM 4.0690 -72.2340 144° Southeast 478 550 37,000 Level FlightAware ADS-B
Mon 02:01:00 AM 3.8181 -72.0520 145° Southeast  Level FlightAware Approximate
Mon 02:02:00 AM 3.7110 -71.9764 145° Southeast  Level FlightAware Approximate
Mon 02:03:00 AM 3.6038 -71.9009 145° Southeast  Level FlightAware Approximate
Mon 02:04:00 AM 3.4967 -71.8253 145° Southeast  Level FlightAware Approximate
Mon 02:05:00 AM 3.3896 -71.7498 145° Southeast  Level FlightAware Approximate
Mon 02:06:00 AM 3.2824 -71.6743 145° Southeast  Level FlightAware Approximate
Mon 02:07:00 AM 3.1753 -71.5988 145° Southeast  Level FlightAware Approximate
Mon 02:08:00 AM 3.0681 -71.5233 145° Southeast  Level FlightAware Approximate
Mon 02:09:00 AM 2.9609 -71.4479 145° Southeast  Level FlightAware Approximate
Mon 02:10:00 AM 2.8538 -71.3724 145° Southeast  Level FlightAware Approximate
Mon 02:11:00 AM 2.7466 -71.2970 145° Southeast  Level FlightAware Approximate
Mon 02:12:00 AM 2.6394 -71.2215 145° Southeast  Level FlightAware Approximate
Mon 02:13:00 AM 2.5322 -71.1461 145° Southeast  Level FlightAware Approximate
Mon 02:14:00 AM 2.4251 -71.0707 145° Southeast  Level FlightAware Approximate
Mon 02:15:00 AM 2.3179 -70.9954 145° Southeast  Level FlightAware Approximate
Mon 02:16:00 AM 2.2107 -70.9200 145° Southeast  Level FlightAware Approximate
Mon 02:17:00 AM 2.1035 -70.8446 145° Southeast  Level FlightAware Approximate
Mon 02:18:00 AM 1.9963 -70.7693 145° Southeast  Level FlightAware Approximate
Mon 02:19:00 AM 1.8891 -70.6939 145° Southeast  Level FlightAware Approximate
Mon 02:20:00 AM 1.7818 -70.6186 145° Southeast  Level FlightAware Approximate
Mon 02:21:00 AM 1.6746 -70.5433 145° Southeast  Level FlightAware Approximate
Mon 02:22:00 AM 1.5674 -70.4680 145° Southeast  Level FlightAware Approximate
Mon 02:23:00 AM 1.4602 -70.3926 145° Southeast  Level FlightAware Approximate
Mon 02:24:00 AM 1.3530 -70.3174 145° Southeast  Level FlightAware Approximate
Mon 02:25:00 AM 1.2459 -70.2422 145° Southeast  Level FlightAware Approximate
Mon 02:26:00 AM 1.1472 -70.1566 138° Southeast  Level FlightAware Approximate
Mon 02:27:00 AM 1.0495 -70.0696 138° Southeast  Level FlightAware Approximate
Mon 02:28:00 AM 0.9518 -69.9827 138° Southeast  Level FlightAware Approximate
Mon 02:29:00 AM 0.8541 -69.8957 138° Southeast  Level FlightAware Approximate
Mon 02:30:00 AM 0.7564 -69.8087 138° Southeast  Level FlightAware Approximate
Mon 02:31:00 AM 0.6587 -69.7218 138° Southeast  Level FlightAware Approximate
Mon 02:32:00 AM 0.5610 -69.6348 138° Southeast  Level FlightAware Approximate
Mon 02:33:00 AM 0.4633 -69.5479 138° Southeast  Level FlightAware Approximate
Mon 02:34:00 AM 0.3656 -69.4609 138° Southeast  Level FlightAware Approximate
Mon 02:35:00 AM 0.2680 -69.3740 138° Southeast  Level FlightAware Approximate
Mon 02:36:00 AM 0.1703 -69.2870 138° Southeast  Level FlightAware Approximate
Mon 02:37:00 AM 0.0726 -69.2001 138° Southeast  Level FlightAware Approximate
Mon 02:38:00 AM -0.0251 -69.1132 138° Southeast  Level FlightAware Approximate
Mon 02:39:00 AM -0.1228 -69.0262 138° Southeast  Level FlightAware Approximate
Mon 02:40:00 AM -0.2205 -68.9393 138° Southeast  Level FlightAware Approximate
Mon 02:41:00 AM -0.3182 -68.8523 138° Southeast  Level FlightAware Approximate
Mon 02:42:00 AM -0.4159 -68.7654 138° Southeast  Level FlightAware Approximate
Mon 02:43:00 AM -0.5136 -68.6785 138° Southeast  Level FlightAware Approximate
Mon 02:44:00 AM -0.6113 -68.5915 138° Southeast  Level FlightAware Approximate
Mon 02:45:00 AM -0.7090 -68.5046 138° Southeast  Level FlightAware Approximate
Mon 02:46:00 AM -0.8067 -68.4176 138° Southeast  Level FlightAware Approximate
Mon 02:47:00 AM -0.9043 -68.3306 138° Southeast  Level FlightAware Approximate
Mon 02:48:00 AM -1.0020 -68.2437 138° Southeast  Level FlightAware Approximate
Mon 02:49:00 AM -1.0997 -68.1567 138° Southeast  Level FlightAware Approximate
Mon 02:50:00 AM -1.1974 -68.0697 138° Southeast  Level FlightAware Approximate
Mon 02:51:00 AM -1.2951 -67.9827 138° Southeast  Level FlightAware Approximate
Mon 02:52:00 AM -1.3927 -67.8958 138° Southeast  Level FlightAware Approximate
Mon 02:53:00 AM -1.4904 -67.8088 138° Southeast  Level FlightAware Approximate
Mon 02:54:00 AM -1.5881 -67.7218 138° Southeast  Level FlightAware Approximate
Mon 02:55:00 AM -1.6857 -67.6348 138° Southeast  Level FlightAware Approximate
Mon 02:56:00 AM -1.7834 -67.5477 138° Southeast  Level FlightAware Approximate
Mon 02:57:00 AM -1.8811 -67.4607 138° Southeast  Level FlightAware Approximate
Mon 02:58:00 AM -1.9787 -67.3737 138° Southeast  Level FlightAware Approximate
Mon 02:59:00 AM -2.0764 -67.2866 138° Southeast  Level FlightAware Approximate
Mon 03:00:00 AM -2.1740 -67.1995 138° Southeast  Level FlightAware Approximate
Mon 03:01:00 AM -2.2716 -67.1125 138° Southeast  Level FlightAware Approximate
Mon 03:02:00 AM -2.3693 -67.0254 138° Southeast  Level FlightAware Approximate
Mon 03:03:00 AM -2.4669 -66.9383 138° Southeast  Level FlightAware Approximate
Mon 03:04:00 AM -2.5645 -66.8512 138° Southeast  Level FlightAware Approximate
Mon 03:05:00 AM -2.6621 -66.7641 138° Southeast  Level FlightAware Approximate
Mon 03:06:00 AM -2.7597 -66.6769 138° Southeast  Level FlightAware Approximate
Mon 03:07:00 AM -2.8573 -66.5898 138° Southeast  Level FlightAware Approximate
Mon 03:08:00 AM -2.9549 -66.5026 138° Southeast  Level FlightAware Approximate
Mon 03:09:00 AM -3.0525 -66.4154 138° Southeast  Level FlightAware Approximate
Mon 03:10:00 AM -3.1501 -66.3282 138° Southeast  Level FlightAware Approximate
Mon 03:11:00 AM -3.2477 -66.2410 138° Southeast  Level FlightAware Approximate
Mon 03:12:00 AM -3.3452 -66.1538 138° Southeast  Level FlightAware Approximate
Mon 03:13:00 AM -3.4428 -66.0666 138° Southeast  Level FlightAware Approximate
Mon 03:14:00 AM -3.5404 -65.9793 138° Southeast  Level FlightAware Approximate
Mon 03:15:00 AM -3.6379 -65.8920 138° Southeast  Level FlightAware Approximate
Mon 03:16:00 AM -3.7354 -65.8047 138° Southeast  Level FlightAware Approximate
Mon 03:17:00 AM -3.8330 -65.7174 138° Southeast  Level FlightAware Approximate
Mon 03:18:00 AM -3.9305 -65.6301 138° Southeast  Level FlightAware Approximate
Mon 03:19:00 AM -4.0280 -65.5427 138° Southeast  Level FlightAware Approximate
Mon 03:20:00 AM -4.1255 -65.4553 138° Southeast  Level FlightAware Approximate
Mon 03:21:00 AM -4.2230 -65.3679 138° Southeast  Level FlightAware Approximate
Mon 03:22:00 AM -4.3205 -65.2805 138° Southeast  Level FlightAware Approximate
Mon 03:23:00 AM -4.4179 -65.1930 138° Southeast  Level FlightAware Approximate
Mon 03:24:00 AM -4.5154 -65.1056 138° Southeast  Level FlightAware Approximate
Mon 03:25:00 AM -4.6128 -65.0181 138° Southeast  Level FlightAware Approximate
Mon 03:26:00 AM -4.7103 -64.9305 138° Southeast  Level FlightAware Approximate
Mon 03:27:00 AM -4.8077 -64.8430 138° Southeast  Level FlightAware Approximate
Mon 03:28:00 AM -4.9051 -64.7554 138° Southeast  Level FlightAware Approximate
Mon 03:29:00 AM -5.0025 -64.6678 138° Southeast  Level FlightAware Approximate
Mon 03:30:00 AM -5.1001 -64.5801 138° Southeast  Level FlightAware Approximate
Mon 03:31:00 AM -5.1976 -64.4923 138° Southeast  Level FlightAware Approximate
Mon 03:32:00 AM -5.2952 -64.4044 138° Southeast  Level FlightAware Approximate
Mon 03:33:00 AM -5.3927 -64.3166 138° Southeast  Level FlightAware Approximate
Mon 03:34:00 AM -5.4902 -64.2287 138° Southeast  Level FlightAware Approximate
Mon 03:35:00 AM -5.5877 -64.1408 138° Southeast  Level FlightAware Approximate
Mon 03:36:00 AM -5.6852 -64.0529 138° Southeast  Level FlightAware Approximate
Mon 03:37:00 AM -5.7827 -63.9649 138° Southeast  Level FlightAware Approximate
Mon 03:38:00 AM -5.8801 -63.8769 138° Southeast  Level FlightAware Approximate
Mon 03:39:00 AM -5.9776 -63.7889 138° Southeast  Level FlightAware Approximate
Mon 03:40:00 AM -6.0750 -63.7008 138° Southeast  Level FlightAware Approximate
Mon 03:41:00 AM -6.1725 -63.6127 138° Southeast  Level FlightAware Approximate
Mon 03:42:00 AM -6.2699 -63.5246 138° Southeast  Level FlightAware Approximate
Mon 03:43:00 AM -6.3672 -63.4364 138° Southeast  Level FlightAware Approximate
Mon 03:44:00 AM -6.4646 -63.3482 138° Southeast  Level FlightAware Approximate
Mon 03:45:00 AM -6.5620 -63.2600 138° Southeast  Level FlightAware Approximate
Mon 03:46:00 AM -6.6593 -63.1717 138° Southeast  Level FlightAware Approximate
Mon 03:47:00 AM -6.7567 -63.0834 138° Southeast  Level FlightAware Approximate
Mon 03:48:00 AM -6.8540 -62.9951 138° Southeast  Level FlightAware Approximate
Mon 03:49:00 AM -6.9513 -62.9067 138° Southeast  Level FlightAware Approximate
Mon 03:50:00 AM -7.0486 -62.8183 138° Southeast  Level FlightAware Approximate
Mon 03:51:00 AM -7.1458 -62.7299 138° Southeast  Level FlightAware Approximate
Mon 03:52:00 AM -7.2431 -62.6414 138° Southeast  Level FlightAware Approximate
Mon 03:53:00 AM -7.3403 -62.5529 138° Southeast  Level FlightAware Approximate
Mon 03:54:00 AM -7.4375 -62.4643 138° Southeast  Level FlightAware Approximate
Mon 03:55:00 AM -7.5347 -62.3757 138° Southeast  Level FlightAware Approximate
Mon 03:56:00 AM -7.6319 -62.2871 138° Southeast  Level FlightAware Approximate
Mon 03:57:00 AM -7.7291 -62.1984 138° Southeast  Level FlightAware Approximate
Mon 03:58:00 AM -7.8262 -62.1097 138° Southeast  Level FlightAware Approximate
Mon 03:59:00 AM -7.9233 -62.0209 138° Southeast  Level FlightAware Approximate
Mon 04:00:00 AM -8.0204 -61.9321 138° Southeast  Level FlightAware Approximate
Mon 04:01:00 AM -8.1173 -61.8434 138° Southeast  Level FlightAware Approximate
Mon 04:02:00 AM -8.2142 -61.7547 138° Southeast  Level FlightAware Approximate
Mon 04:03:00 AM -8.3111 -61.6659 138° Southeast  Level FlightAware Approximate
Mon 04:04:00 AM -8.4080 -61.5771 138° Southeast  Level FlightAware Approximate
Mon 04:05:00 AM -8.5048 -61.4883 138° Southeast  Level FlightAware Approximate
Mon 04:06:00 AM -8.6016 -61.3993 138° Southeast  Level FlightAware Approximate
Mon 04:07:00 AM -8.6984 -61.3104 138° Southeast  Level FlightAware Approximate
Mon 04:08:00 AM -8.7952 -61.2214 138° Southeast  Level FlightAware Approximate
Mon 04:09:00 AM -8.8919 -61.1323 138° Southeast  Level FlightAware Approximate
Mon 04:10:00 AM -8.9887 -61.0433 138° Southeast  Level FlightAware Approximate
Mon 04:11:00 AM -9.0854 -60.9541 138° Southeast  Level FlightAware Approximate
Mon 04:12:00 AM -9.1821 -60.8649 138° Southeast  Level FlightAware Approximate
Mon 04:13:00 AM -9.2788 -60.7757 138° Southeast  Level FlightAware Approximate
Mon 04:14:00 AM -9.3754 -60.6864 138° Southeast  Level FlightAware Approximate
Mon 04:15:00 AM -9.4720 -60.5970 138° Southeast  Level FlightAware Approximate
Mon 04:16:00 AM -9.5686 -60.5077 138° Southeast  Level FlightAware Approximate
Mon 04:17:00 AM -9.6652 -60.4182 138° Southeast  Level FlightAware Approximate
Mon 04:18:00 AM -9.7618 -60.3287 138° Southeast  Level FlightAware Approximate
Mon 04:19:00 AM -9.8583 -60.2392 138° Southeast  Level FlightAware Approximate
Mon 04:20:00 AM -9.9548 -60.1496 138° Southeast  Level FlightAware Approximate
Mon 04:21:00 AM -10.0513 -60.0600 138° Southeast  Level FlightAware Approximate
Mon 04:22:00 AM -10.1481 -59.9699 138° Southeast  Level FlightAware Approximate
Mon 04:23:00 AM -10.2449 -59.8799 138° Southeast  Level FlightAware Approximate
Mon 04:24:00 AM -10.3416 -59.7897 138° Southeast  Level FlightAware Approximate
Mon 04:25:00 AM -10.4383 -59.6996 137° Southeast  Level FlightAware Approximate
Mon 04:26:00 AM -10.5350 -59.6093 137° Southeast  Level FlightAware Approximate
Mon 04:27:00 AM -10.6317 -59.5190 137° Southeast  Level FlightAware Approximate
Mon 04:28:00 AM -10.7284 -59.4287 137° Southeast  Level FlightAware Approximate
Mon 04:29:00 AM -10.8250 -59.3383 137° Southeast  Level FlightAware Approximate
Mon 04:30:00 AM -10.9216 -59.2478 137° Southeast  Level FlightAware Approximate
Mon 04:31:00 AM -11.0182 -59.1573 137° Southeast  Level FlightAware Approximate
Mon 04:32:00 AM -11.1147 -59.0667 137° Southeast  Level FlightAware Approximate
Mon 04:33:00 AM -11.2112 -58.9761 137° Southeast  Level FlightAware Approximate
Mon 04:34:00 AM -11.3077 -58.8854 137° Southeast  Level FlightAware Approximate
Mon 04:35:00 AM -11.4042 -58.7946 137° Southeast  Level FlightAware Approximate
Mon 04:36:00 AM -11.5006 -58.7038 137° Southeast  Level FlightAware Approximate
Mon 04:37:00 AM -11.5970 -58.6129 137° Southeast  Level FlightAware Approximate
Mon 04:38:00 AM -11.6934 -58.5219 137° Southeast  Level FlightAware Approximate
Mon 04:39:00 AM -11.7897 -58.4309 137° Southeast  Level FlightAware Approximate
Mon 04:40:00 AM -11.8860 -58.3398 137° Southeast  Level FlightAware Approximate
Mon 04:41:00 AM -11.9823 -58.2487 137° Southeast  Level FlightAware Approximate
Mon 04:42:00 AM -12.0786 -58.1575 137° Southeast  Level FlightAware Approximate
Mon 04:43:00 AM -12.1748 -58.0662 137° Southeast  Level FlightAware Approximate
Mon 04:44:00 AM -12.2710 -57.9749 137° Southeast  Level FlightAware Approximate
Mon 04:45:00 AM -12.3672 -57.8835 137° Southeast  Level FlightAware Approximate
Mon 04:46:00 AM -12.4633 -57.7920 137° Southeast  Level FlightAware Approximate
Mon 04:47:00 AM -12.5594 -57.7004 137° Southeast  Level FlightAware Approximate
Mon 04:48:00 AM -12.6555 -57.6088 137° Southeast  Level FlightAware Approximate
Mon 04:49:00 AM -12.7516 -57.5172 137° Southeast  Level FlightAware Approximate
Mon 04:50:00 AM -12.8474 -57.4256 137° Southeast  Level FlightAware Approximate
Mon 04:51:00 AM -12.9432 -57.3339 137° Southeast  Level FlightAware Approximate
Mon 04:52:00 AM -13.0390 -57.2422 137° Southeast  Level FlightAware Approximate
Mon 04:53:00 AM -13.1348 -57.1504 137° Southeast  Level FlightAware Approximate
Mon 04:54:00 AM -13.2305 -57.0585 137° Southeast  Level FlightAware Approximate
Mon 04:55:00 AM -13.3262 -56.9666 137° Southeast  Level FlightAware Approximate
Mon 04:56:00 AM -13.4220 -56.8744 137° Southeast  Level FlightAware Approximate
Mon 04:57:00 AM -13.5178 -56.7821 137° Southeast  Level FlightAware Approximate
Mon 04:58:00 AM -13.6135 -56.6898 137° Southeast  Level FlightAware Approximate
Mon 04:59:00 AM -13.7092 -56.5974 137° Southeast  Level FlightAware Approximate
Mon 05:00:00 AM -13.8049 -56.5049 137° Southeast  Level FlightAware Approximate
Mon 05:01:00 AM -13.9006 -56.4124 137° Southeast  Level FlightAware Approximate
Mon 05:02:00 AM -13.9962 -56.3197 137° Southeast  Level FlightAware Approximate
Mon 05:03:00 AM -14.0918 -56.2270 137° Southeast  Level FlightAware Approximate
Mon 05:04:00 AM -14.1873 -56.1343 137° Southeast  Level FlightAware Approximate
Mon 05:05:00 AM -14.2828 -56.0414 137° Southeast  Level FlightAware Approximate
Mon 05:06:00 AM -14.3783 -55.9484 137° Southeast  Level FlightAware Approximate
Mon 05:07:00 AM -14.4737 -55.8554 137° Southeast  Level FlightAware Approximate
Mon 05:08:00 AM -14.5691 -55.7623 137° Southeast  Level FlightAware Approximate
Mon 05:09:00 AM -14.6645 -55.6692 137° Southeast  Level FlightAware Approximate
Mon 05:10:00 AM -14.7598 -55.5759 137° Southeast  Level FlightAware Approximate
Mon 05:11:00 AM -14.8551 -55.4826 137° Southeast  Level FlightAware Approximate
Mon 05:12:00 AM -14.9503 -55.3891 137° Southeast  Level FlightAware Approximate
Mon 05:13:00 AM -15.0456 -55.2956 137° Southeast  Level FlightAware Approximate
Mon 05:14:00 AM -15.1407 -55.2020 136° Southeast  Level FlightAware Approximate
Mon 05:15:00 AM -15.2359 -55.1083 136° Southeast  Level FlightAware Approximate
Mon 05:16:00 AM -15.3310 -55.0146 136° Southeast  Level FlightAware Approximate
Mon 05:17:00 AM -15.4260 -54.9207 136° Southeast  Level FlightAware Approximate
Mon 05:18:00 AM -15.5211 -54.8268 136° Southeast  Level FlightAware Approximate
Mon 05:19:00 AM -15.6160 -54.7328 136° Southeast  Level FlightAware Approximate
Mon 05:20:00 AM -15.7110 -54.6387 136° Southeast  Level FlightAware Approximate
Mon 05:21:00 AM -15.8059 -54.5445 136° Southeast  Level FlightAware Approximate
Mon 05:22:00 AM -15.9007 -54.4502 136° Southeast  Level FlightAware Approximate
Mon 05:23:00 AM -15.9956 -54.3558 136° Southeast  Level FlightAware Approximate
Mon 05:24:00 AM -16.0903 -54.2614 136° Southeast  Level FlightAware Approximate
Mon 05:25:00 AM -16.1850 -54.1668 136° Southeast  Level FlightAware Approximate
Mon 05:26:00 AM -16.2797 -54.0722 136° Southeast  Level FlightAware Approximate
Mon 05:27:00 AM -16.3744 -53.9775 136° Southeast  Level FlightAware Approximate
Mon 05:28:00 AM -16.4690 -53.8826 136° Southeast  Level FlightAware Approximate
Mon 05:29:00 AM -16.5636 -53.7877 136° Southeast  Level FlightAware Approximate
Mon 05:30:00 AM -16.6581 -53.6927 136° Southeast  Level FlightAware Approximate
Mon 05:31:00 AM -16.7526 -53.5976 136° Southeast  Level FlightAware Approximate
Mon 05:32:00 AM -16.8470 -53.5024 136° Southeast  Level FlightAware Approximate
Mon 05:33:00 AM -16.9414 -53.4071 136° Southeast  Level FlightAware Approximate
Mon 05:34:00 AM -17.0357 -53.3117 136° Southeast  Level FlightAware Approximate
Mon 05:35:00 AM -17.1300 -53.2162 136° Southeast  Level FlightAware Approximate
Mon 05:36:00 AM -17.2243 -53.1206 136° Southeast  Level FlightAware Approximate
Mon 05:37:00 AM -17.3185 -53.0249 136° Southeast  Level FlightAware Approximate
Mon 05:38:00 AM -17.4127 -52.9292 136° Southeast  Level FlightAware Approximate
Mon 05:39:00 AM -17.5068 -52.8333 136° Southeast  Level FlightAware Approximate
Mon 05:40:00 AM -17.6009 -52.7373 136° Southeast  Level FlightAware Approximate
Mon 05:41:00 AM -17.6949 -52.6412 136° Southeast  Level FlightAware Approximate
Mon 05:42:00 AM -17.7889 -52.5451 136° Southeast  Level FlightAware Approximate
Mon 05:43:00 AM -17.8828 -52.4488 136° Southeast  Level FlightAware Approximate
Mon 05:44:00 AM -17.9767 -52.3524 136° Southeast  Level FlightAware Approximate
Mon 05:45:00 AM -18.0705 -52.2559 136° Southeast  Level FlightAware Approximate
Mon 05:46:00 AM -18.1643 -52.1593 136° Southeast  Level FlightAware Approximate
Mon 05:46:52 AM -18.9990 -50.6720 136° Southeast 495 570 39,000  Level FlightAware ADS-B
Mon 05:47:00 AM -18.2581 -52.0626 136° Southeast  Level FlightAware Approximate
Mon 05:47:35 AM -19.0760 -50.5890 134° Southeast 493 567 39,000  Level FlightAware ADS-B
Mon 05:48:15 AM -19.1410 -50.5190 135° Southeast 493 567 39,000  Level FlightAware ADS-B
Mon 05:49:00 AM -19.2110 -50.4430 134° Southeast 491 565 39,000  Level FlightAware ADS-B
Mon 05:49:43 AM -19.2800 -50.3670 134° Southeast 490 564 39,000  Level FlightAware ADS-B
Mon 05:50:23 AM -19.3430 -50.2990 134° Southeast 491 565 39,000  Level FlightAware ADS-B
Mon 05:51:07 AM -19.4130 -50.2220 134° Southeast 492 566 39,000  Level FlightAware ADS-B
Mon 05:51:41 AM -19.4670 -50.1640 135° Southeast 492 566 39,000  Level FlightAware ADS-B
Mon 05:52:26 AM -19.5380 -50.0870 134° Southeast 489 563 39,000  Level FlightAware ADS-B
Mon 05:53:05 AM -19.6000 -50.0180 134° Southeast 487 560 39,000  Level FlightAware ADS-B
Mon 05:53:41 AM -19.6560 -49.9570 134° Southeast 485 558 39,000  Level FlightAware ADS-B
Mon 05:54:25 AM -19.7250 -49.8820 134° Southeast 483 556 39,000  Level FlightAware ADS-B
Mon 05:55:05 AM -19.7860 -49.8140 134° Southeast 481 554 39,000  Level FlightAware ADS-B
Mon 05:55:41 AM -19.8420 -49.7520 134° Southeast 480 552 39,000  Level FlightAware ADS-B
Mon 05:56:21 AM -19.9030 -49.6860 135° Southeast 479 551 39,000  Level FlightAware ADS-B
Mon 05:57:05 AM -19.9680 -49.6140 134° Southeast 479 551 39,000  Level FlightAware ADS-B
Mon 05:57:45 AM -20.0320 -49.5430 134° Southeast 479 551 39,000  Level FlightAware ADS-B
Mon 05:58:25 AM -20.0950 -49.4740 134° Southeast 480 552 39,000  Level FlightAware ADS-B
Mon 05:59:09 AM -20.1620 -49.4000 134° Southeast 480 552 39,000  Level FlightAware ADS-B
Mon 05:59:51 AM -20.2270 -49.3280 134° Southeast 481 554 39,000  Level FlightAware ADS-B
Mon 06:00:26 AM -20.2800 -49.2690 134° Southeast 481 554 39,000  Level FlightAware ADS-B
Mon 06:01:09 AM -20.3470 -49.1950 134° Southeast 481 554 39,000  Level FlightAware ADS-B
Mon 06:01:51 AM -20.4100 -49.1260 134° Southeast 480 552 39,000  Level FlightAware ADS-B
Mon 06:02:34 AM -20.4820 -49.0550 137° Southeast 479 551 39,000  Level FlightAware ADS-B
Mon 06:03:12 AM -20.5440 -48.9960 138° Southeast 479 551 39,000  Level FlightAware ADS-B
Mon 06:03:55 AM -20.6180 -48.9290 140° Southeast 479 551 39,000  Level FlightAware ADS-B
Mon 06:04:37 AM -20.6900 -48.8630 139° Southeast 479 551 39,000  Level FlightAware ADS-B
Mon 06:05:19 AM -20.7600 -48.7990 139° Southeast 480 552 39,000  Level FlightAware ADS-B
Mon 06:05:57 AM -20.8250 -48.7400 140° Southeast 480 552 39,000  Level FlightAware ADS-B
Mon 06:06:38 AM -20.8940 -48.6760 139° Southeast 482 555 39,000  Level FlightAware ADS-B
Mon 06:07:18 AM -20.9610 -48.6140 139° Southeast 483 556 39,000  Level FlightAware ADS-B
Mon 06:07:54 AM -21.0220 -48.5580 139° Southeast 484 557 39,000  Level FlightAware ADS-B
Mon 06:08:38 AM -21.0980 -48.4880 139° Southeast 485 558 39,000  Level FlightAware ADS-B
Mon 06:09:19 AM -21.1660 -48.4240 139° Southeast 486 559 39,000  Level FlightAware ADS-B
Mon 06:09:58 AM -21.2340 -48.3620 140° Southeast 486 559 39,000  Level FlightAware ADS-B
Mon 06:10:42 AM -21.3070 -48.2940 139° Southeast 486 559 39,000  Level FlightAware ADS-B
Mon 06:12:14 AM -21.4470 -48.1600 138° Southeast 488 562 39,000  Level FlightAware ADS-B
Mon 06:12:58 AM -21.5400 -48.0770 140° Southeast 486 559 39,000  Level FlightAware ADS-B
Mon 06:13:44 AM -21.6180 -48.0040 139° Southeast 486 559 39,000  Level FlightAware ADS-B
Mon 06:14:20 AM -21.6790 -47.9470 139° Southeast 485 558 39,000  Level FlightAware ADS-B
Mon 06:14:56 AM -21.7390 -47.8910 139° Southeast 484 557 39,000  Level FlightAware ADS-B
Mon 06:15:12 AM -21.7670 -47.8640 138° Southeast 484 557 39,000 -990 Level FlightAware ADS-B
Mon 06:16:33 AM -21.9000 -47.7400 139° Southeast 486 559 37,400 -1,415 Descending FlightAware ADS-B
Mon 06:17:15 AM -21.9750 -47.6690 139° Southeast 484 557 36,100 -2,634 Descending FlightAware ADS-B
Mon 06:17:55 AM -22.0440 -47.6040 139° Southeast 493 567 33,800 -3,225 Descending FlightAware ADS-B
Mon 06:18:35 AM -22.1120 -47.5400 139° Southeast 498 573 31,800 -2,854 Descending FlightAware ADS-B
Mon 06:19:17 AM -22.1850 -47.4710 139° Southeast 494 568 29,900 -2,550 Descending FlightAware ADS-B
Mon 06:19:55 AM -22.2490 -47.4100 139° Southeast 485 558 28,400 -2,308 Descending FlightAware ADS-B
Mon 06:20:35 AM -22.3140 -47.3470 138° Southeast 476 548 26,900 -2,296 Descending FlightAware ADS-B
Mon 06:21:16 AM -22.3830 -47.2820 139° Southeast 467 537 25,300 -2,278 Descending FlightAware ADS-B
Mon 06:21:54 AM -22.4440 -47.2240 139° Southeast 457 526 23,900 -2,308 Descending FlightAware ADS-B
Mon 06:22:34 AM -22.5070 -47.1640 139° Southeast 448 516 22,300 -2,341 Descending FlightAware ADS-B
Mon 06:23:16 AM -22.5740 -47.1050 141° Southeast 435 501 20,700 -2,235 Descending FlightAware ADS-B
Mon 06:24:16 AM -22.6830 -47.0530 156° South 422 486 18,500 -2,100 Descending FlightAware ADS-B
Mon 06:24:56 AM -22.7550 -47.0230 159° South 408 470 17,200 -2,250 Descending FlightAware ADS-B
Mon 06:25:36 AM -22.8230 -46.9940 159° South 392 451 15,500 -1,875 Descending FlightAware ADS-B
Mon 06:26:16 AM -22.8890 -46.9670 159° South 368 423 14,700 -1,500 Descending FlightAware ADS-B
Mon 06:26:56 AM -22.9500 -46.9410 159° South 323 372 13,500 -1,778 Descending FlightAware ADS-B
Mon 06:27:37 AM -23.0040 -46.9180 159° South 300 345 12,300 -1,683 Descending FlightAware ADS-B
Mon 06:28:18 AM -23.0570 -46.8960 159° South 283 326 11,200 -1,500 Descending FlightAware ADS-B
Mon 06:29:01 AM -23.1080 -46.8750 159° South 285 328 10,200 -1,183 Descending FlightAware ADS-B
Mon 06:29:29 AM -23.1430 -46.8600 158° South 272 313 9,800 -1,071 Descending FlightAware ADS-B
Mon 06:29:57 AM -23.1760 -46.8460 159° South 271 312 9,200 -1,286 Descending FlightAware ADS-B
Mon 06:30:25 AM -23.2080 -46.8320 158° South 269 310 8,600 -1,179 Descending FlightAware ADS-B
Mon 06:30:53 AM -23.2410 -46.8180 159° South 267 307 8,100 -1,038 Descending FlightAware ADS-B
Mon 06:31:17 AM -23.2690 -46.8070 160° South 261 300 7,700 -735 Descending FlightAware ADS-B
Mon 06:31:42 AM -23.2930 -46.7970 159° South 250 288 7,500 -480 Descending FlightAware ADS-B
Mon 06:32:07 AM -23.3230 -46.7840 158° South 239 275 7,300 -419 Descending FlightAware ADS-B
Mon 06:32:25 AM -23.3400 -46.7760 157° South 238 274 7,200 -261 Descending FlightAware ADS-B
Mon 06:32:53 AM -23.3690 -46.7630 158° South 238 274 7,100 -444 Descending FlightAware ADS-B
Mon 06:33:19 AM -23.3920 -46.7440 143° Southeast 236 272 6,800 -1,200 Descending FlightAware ADS-B
Mon 06:33:43 AM -23.4110 -46.7270 141° Southeast 232 267 6,100 -1,500 Descending FlightAware ADS-B
Mon 06:34:11 AM -23.4330 -46.7060 139° Southeast 209 241 5,500 -1,071 Descending FlightAware ADS-B
Mon 06:34:39 AM -23.4510 -46.6840 132° Southeast 197 227 5,100 -706 Descending FlightAware ADS-B
Mon 06:35:02 AM -23.4600 -46.6650 117° Southeast 185 213 4,900 -643 Descending FlightAware ADS-B
Mon 06:35:35 AM -23.4720 -46.6370 115° Southeast 184 212 4,500 -667 Descending FlightAware ADS-B
Mon 06:35:47 AM -23.4740 -46.6260 101° East 186 214 4,400 -300 Descending FlightAware ADS-B
Mon 06:36:15 AM -23.4700 -46.6010 80° East 174 200 4,300 -577 Descending FlightAware ADS-B
Mon 06:36:39 AM -23.4640 -46.5800 73° East 173 199 3,900 -964 Descending FlightAware ADS-B
Mon 06:37:11 AM -23.4570 -46.5560 72° East 151 174 3,400 -875 Descending FlightAware ADS-B
Mon 06:37:27 AM -23.4540 -46.5440 75° East 148 170 3,200 -698 Descending FlightAware ADS-B
Mon 06:37:54 AM -23.4490 -46.5250 74° East 149 171 2,900 -652 Descending FlightAware ADS-B
Mon 06:38:13 AM -23.4460 -46.5130 75° East 147 169 2,700 -842 Descending FlightAware ADS-B
Mon 06:38:51 AM -23.4380 -46.4850 73° East 146 168 2,100 -947 Descending FlightAware ADS-B
Mon 06:39:16 AM -23.4350 -46.4720 76° East 94 108 -5,040 Descending FlightAware ADS-B

Login

Don't have an account? Register now (free) for customized features, flight alerts, and more!